• Join FlightAware (Why Join?)
  • Login
  • US Flag 
09:19AM EDT


 

Airport Tracker/Info


-or-


 

Live Flight TrackerFlight Track Log ✈ GGN7280 ✈ 07-May-2013 ✈ CYYZ - KALB

Flight Track Log - Related Links

Times and Time Zones

All times are in EDT time to prevent confusion due to time zone crossing. See the GGN7280 flight status page for this flight to view local times or setup timezone preferences in your user account.

Time Position Orientation Groundspeed Altitude Reporting Facility
EDT Latitude Longitude Course Direction KTS MPH feet Rate Location/Type
09:31AM 43.6333 -79.6167 125° Southeast 190 219 2,100  Level Toronto Center
09:32AM 43.5667 -79.5833 160° South 210 242 3,400 1,320 Climbing Toronto Center
09:33AM 43.5167 -79.5333 144° Southeast 220 253 4,800 840 Climbing Toronto Center
09:34AM 43.5000 -79.4667 109° East 240 276 5,100 120 Climbing Toronto Center
09:35AM 43.5000 -79.3833 90° East 250 288 5,100  Level Toronto Center
09:36AM 43.5928 -79.0033 125° Southeast  Level Estimated
09:36AM 43.5167 -79.2667 79° East 250 288 5,100  Level Toronto Center
09:37AM 43.5333 -79.2000 71° East 240 276 6,400 1,320 Climbing Toronto Center
09:38AM 43.5000 -79.1333 125° Southeast 210 242 7,800 1,500 Climbing Toronto Center
09:39AM 43.4667 -79.0667 125° Southeast 210 242 9,400 1,500 Climbing Toronto Center
09:40AM 43.4500 -78.9667 103° East 210 242 10,800 1,500 Climbing Toronto Center
09:41AM 43.4167 -78.9000 125° Southeast 210 242 12,500 1,860 Climbing Toronto Center
09:42AM 43.4167 -78.8333 90° East 210 242 14,600 1,860 Climbing Toronto Center
09:43AM 43.4000 -78.7667 109° East 190 219 16,300 1,560 Climbing Toronto Center
09:44AM 43.4000 -78.6667 90° East 210 242 17,800 1,200 Climbing Toronto Center
09:45AM 43.3833 -78.6000 109° East 210 242 18,800 1,020 Climbing Toronto Center
09:45AM 43.3847 -78.5722 86° East 207 238 19,400 1,140 Climbing Cleveland Center
09:46AM 43.3750 -78.4897 99° East 213 245 20,600 720 Climbing Cleveland Center
09:47AM 43.3650 -78.3989 99° East 224 258 20,900 180 Climbing Cleveland Center
09:48AM 43.3528 -78.3050 100° East 238 274 21,000  Climbing Cleveland Center
09:49AM 43.3425 -78.2111 99° East 243 280 21,000  Level Cleveland Center
09:50AM 43.3322 -78.1144 98° East 248 285 21,000  Level Cleveland Center
09:51AM 43.3197 -78.0181 100° East 253 291 21,000  Level Cleveland Center
09:52AM 43.3092 -77.9214 99° East 258 297 21,000  Level Cleveland Center
09:53AM 43.2983 -77.8219 98° East 258 297 21,000 -60 Level Cleveland Center
09:54AM 43.2858 -77.7283 100° East 258 297 20,900 -60 Descending Cleveland Center
09:55AM 43.2750 -77.6319 99° East 258 297 20,900  Level Cleveland Center
09:56AM 43.2622 -77.5356 100° East 258 297 21,000  Climbing Cleveland Center
09:57AM 43.2511 -77.4364 99° East 258 297 21,000  Level Cleveland Center
09:58AM 43.2381 -77.3403 101° East 258 297 21,000  Level Cleveland Center
09:59AM 43.2269 -77.2439 99° East 258 297 21,000  Level Cleveland Center
10:01AM 43.2103 -77.0900 98° East 254 292 21,000  Level Boston Center
10:02AM 43.1833 -76.9833 109° East 260 299 21,000  Level Toronto Center
10:03AM 43.1833 -76.8667 90° East 260 299 21,000  Level Toronto Center
10:04AM 43.1667 -76.7833 105° East 260 299 21,000 -60 Level Toronto Center
10:05AM 43.1500 -76.6833 103° East 260 299 20,900 -60 Descending Toronto Center
10:06AM 43.1333 -76.5667 101° East 260 299 20,900  Level Toronto Center
10:07AM 43.1167 -76.4833 105° East 260 299 21,000  Climbing Toronto Center
10:08AM 43.1233 -76.4061 83° East 259 298 21,000  Level Boston Center
10:09AM 43.1100 -76.3083 101° East 259 298 21,000 -60 Level Boston Center
10:10AM 43.0967 -76.2108 101° East 259 298 20,900 -300 Descending Boston Center
10:11AM 43.0831 -76.1133 101° East 259 298 20,500 -540 Descending Boston Center
10:12AM 43.0697 -76.0103 100° East 259 298 19,900 -600 Descending Boston Center
10:13AM 43.0542 -75.9042 101° East 264 304 19,400 -540 Descending Boston Center
10:14AM 43.0386 -75.8008 102° East 269 310 18,900 -480 Descending Boston Center
10:15AM 43.0250 -75.6950 100° East 274 315 18,500 -420 Descending Boston Center
10:16AM 43.0111 -75.5922 100° East 279 321 18,100 -360 Descending Boston Center
10:17AM 42.9975 -75.4864 100° East 279 321 17,800 -300 Descending Boston Center
10:18AM 42.9833 -75.3864 101° East 279 321 17,600 -540 Descending Boston Center
10:19AM 42.9672 -75.2806 102° East 279 321 16,800 -840 Descending Boston Center
10:20AM 42.9553 -75.1722 99° East 279 321 16,000 -780 Descending Boston Center
10:21AM 42.9392 -75.0664 102° East 279 321 15,300 -900 Descending Boston Center
10:22AM 42.9206 -74.9608 104° East 279 321 14,300 -1,560 Descending Boston Center
10:23AM 42.9022 -74.8494 103° East 289 333 12,400 -1,860 Descending Boston Center
10:23AM 42.8950 -74.8008 101° East 290 334 11,700 -1,020 Descending Boston Center
10:24AM 42.8858 -74.7353 101° East 285 328 11,300 -600 Descending Boston Center
10:24AM 42.8806 -74.6900 99° East 276 318 11,100 -300 Descending Boston Center
10:25AM 42.8772 -74.6472 96° East 273 314 11,000  Descending Boston Center
10:25AM 42.8717 -74.6072 101° East 260 299 11,100  Climbing Boston Center
10:26AM 42.8644 -74.5392 98° East 263 303 11,000 -120 Descending Boston Center
10:26AM 42.8569 -74.5050 107° East 256 295 11,000  Level Boston Center
10:27AM 42.8494 -74.4564 102° East 249 287 11,000 -720 Level Boston Center
10:27AM 42.8503 -74.4083 89° East 270 311 10,300 -1,500 Descending Boston Center
10:28AM 42.8564 -74.2811 86° East 280 322 8,700 -1,380 Descending Boston Center
10:29AM 42.8550 -74.2528 94° East 267 307 8,100 -1,860 Descending Boston Center
10:29AM 42.8514 -74.2072 96° East 250 288 7,200 -2,040 Descending Boston Center
10:30AM 42.8461 -74.1506 97° East 255 293 6,100 -1,980 Descending Boston Center
10:30AM 42.8406 -74.1022 99° East 225 259 4,800 -1,680 Descending Boston Center
10:31AM 42.8389 -74.0767 95° East 229 264 4,500 -1,260 Descending Boston Center
10:31AM 42.8350 -74.0428 99° East 216 249 3,800 -1,200 Descending Boston Center
10:32AM 42.8275 -73.9886 101° East 217 250 3,300 -1,500 Descending Boston Center
10:32AM 42.8258 -73.9631 95° East 208 239 2,300 -600 Descending Boston Center
10:33AM 42.8181 -73.9119 102° East 212 244 2,700 -180 Climbing Boston Center
10:33AM 42.8144 -73.8694 97° East 192 221 2,100 15,540 Descending Boston Center
10:34AM 42.8086 -73.8353 103° East 212 244 18,000 -540 Climbing Boston Center
10:34AM 42.7986 -73.8125 121° Southeast 158 182 1,600  Descending Boston Center
10:35AM 42.7992 -73.7558 89° East 212 244 18,000 12,120 Climbing Boston Center
10:36AM 42.7897 -73.6792 100° East 212 244 18,000  Level Boston Center
10:37AM 42.7878 -73.6622 99° East 212 244 18,000  Level Boston Center
10:39AM 42.7491 -73.8020 249° West  Level Estimated